sensor_id;sensor_type;location;lat;lon;timestamp;P1;durP1;ratioP1;P2;durP2;ratioP2
73747;SDS011;62056;52.130;5.428;2023-12-14T00:02:13;9.18;;;5.30;;
73747;SDS011;62056;52.130;5.428;2023-12-14T00:04:40;11.73;;;4.90;;
73747;SDS011;62056;52.130;5.428;2023-12-14T00:07:07;7.80;;;5.70;;
73747;SDS011;62056;52.130;5.428;2023-12-14T00:09:34;8.30;;;5.63;;
73747;SDS011;62056;52.130;5.428;2023-12-14T00:12:00;8.90;;;6.40;;
73747;SDS011;62056;52.130;5.428;2023-12-14T00:14:27;8.55;;;5.70;;
73747;SDS011;62056;52.130;5.428;2023-12-14T00:16:54;9.10;;;6.00;;
73747;SDS011;62056;52.130;5.428;2023-12-14T00:19:23;10.40;;;5.97;;
73747;SDS011;62056;52.130;5.428;2023-12-14T00:21:50;10.27;;;5.82;;
73747;SDS011;62056;52.130;5.428;2023-12-14T00:24:17;9.75;;;5.53;;
73747;SDS011;62056;52.130;5.428;2023-12-14T00:26:43;8.60;;;5.28;;
73747;SDS011;62056;52.130;5.428;2023-12-14T00:29:10;6.23;;;5.00;;
73747;SDS011;62056;52.130;5.428;2023-12-14T00:31:37;5.47;;;4.65;;
73747;SDS011;62056;52.130;5.428;2023-12-14T00:34:04;6.13;;;5.53;;
73747;SDS011;62056;52.130;5.428;2023-12-14T00:36:32;6.20;;;5.07;;
73747;SDS011;62056;52.130;5.428;2023-12-14T00:38:59;7.93;;;6.03;;
73747;SDS011;62056;52.130;5.428;2023-12-14T00:41:26;7.03;;;4.50;;
73747;SDS011;62056;52.130;5.428;2023-12-14T00:43:54;4.38;;;3.97;;
73747;SDS011;62056;52.130;5.428;2023-12-14T00:46:20;5.57;;;4.75;;
73747;SDS011;62056;52.130;5.428;2023-12-14T00:48:47;4.47;;;3.80;;
73747;SDS011;62056;52.130;5.428;2023-12-14T00:51:14;5.45;;;4.88;;
73747;SDS011;62056;52.130;5.428;2023-12-14T00:53:41;6.33;;;4.93;;
73747;SDS011;62056;52.130;5.428;2023-12-14T00:56:08;4.43;;;4.03;;
73747;SDS011;62056;52.130;5.428;2023-12-14T00:58:35;7.10;;;5.15;;
73747;SDS011;62056;52.130;5.428;2023-12-14T01:01:02;6.20;;;4.55;;
73747;SDS011;62056;52.130;5.428;2023-12-14T01:03:29;7.22;;;5.35;;
73747;SDS011;62056;52.130;5.428;2023-12-14T01:05:56;5.03;;;4.23;;
73747;SDS011;62056;52.130;5.428;2023-12-14T01:08:23;11.73;;;5.05;;
73747;SDS011;62056;52.130;5.428;2023-12-14T01:10:50;6.10;;;4.80;;
73747;SDS011;62056;52.130;5.428;2023-12-14T01:13:16;5.50;;;4.47;;
73747;SDS011;62056;52.130;5.428;2023-12-14T01:15:43;5.43;;;4.60;;
73747;SDS011;62056;52.130;5.428;2023-12-14T01:18:10;6.50;;;4.80;;
73747;SDS011;62056;52.130;5.428;2023-12-14T01:20:37;5.80;;;4.97;;
73747;SDS011;62056;52.130;5.428;2023-12-14T01:23:04;6.53;;;5.13;;
73747;SDS011;62056;52.130;5.428;2023-12-14T01:25:31;5.50;;;3.60;;
73747;SDS011;62056;52.130;5.428;2023-12-14T01:27:58;6.47;;;5.00;;
73747;SDS011;62056;52.130;5.428;2023-12-14T01:30:26;6.77;;;4.70;;
73747;SDS011;62056;52.130;5.428;2023-12-14T01:32:53;5.60;;;4.20;;
73747;SDS011;62056;52.130;5.428;2023-12-14T01:35:20;7.22;;;4.65;;
73747;SDS011;62056;52.130;5.428;2023-12-14T01:37:46;5.75;;;4.50;;
73747;SDS011;62056;52.130;5.428;2023-12-14T01:40:13;6.22;;;5.40;;
73747;SDS011;62056;52.130;5.428;2023-12-14T01:42:40;6.20;;;4.83;;
73747;SDS011;62056;52.130;5.428;2023-12-14T01:45:07;5.72;;;4.82;;
73747;SDS011;62056;52.130;5.428;2023-12-14T01:47:34;5.15;;;3.90;;
73747;SDS011;62056;52.130;5.428;2023-12-14T01:50:00;5.93;;;5.32;;
73747;SDS011;62056;52.130;5.428;2023-12-14T01:52:27;6.20;;;5.03;;
73747;SDS011;62056;52.130;5.428;2023-12-14T01:54:54;7.80;;;5.13;;
73747;SDS011;62056;52.130;5.428;2023-12-14T01:57:21;6.13;;;5.00;;
73747;SDS011;62056;52.130;5.428;2023-12-14T01:59:48;7.43;;;5.45;;
73747;SDS011;62056;52.130;5.428;2023-12-14T02:02:15;6.10;;;4.57;;
73747;SDS011;62056;52.130;5.428;2023-12-14T02:04:42;7.38;;;6.10;;
73747;SDS011;62056;52.130;5.428;2023-12-14T02:07:08;5.83;;;4.37;;
73747;SDS011;62056;52.130;5.428;2023-12-14T02:09:35;5.88;;;4.75;;
73747;SDS011;62056;52.130;5.428;2023-12-14T02:12:02;6.35;;;5.18;;
73747;SDS011;62056;52.130;5.428;2023-12-14T02:14:29;6.57;;;4.57;;
73747;SDS011;62056;52.130;5.428;2023-12-14T02:16:55;7.00;;;4.72;;
73747;SDS011;62056;52.130;5.428;2023-12-14T02:19:22;6.97;;;5.00;;
73747;SDS011;62056;52.130;5.428;2023-12-14T02:21:49;6.32;;;4.70;;
73747;SDS011;62056;52.130;5.428;2023-12-14T02:24:15;5.43;;;4.90;;
73747;SDS011;62056;52.130;5.428;2023-12-14T02:26:42;6.00;;;4.88;;
73747;SDS011;62056;52.130;5.428;2023-12-14T02:29:27;5.57;;;5.00;;
73747;SDS011;62056;52.130;5.428;2023-12-14T02:31:54;5.13;;;4.63;;
73747;SDS011;62056;52.130;5.428;2023-12-14T02:34:20;6.40;;;4.95;;
73747;SDS011;62056;52.130;5.428;2023-12-14T02:36:47;4.30;;;3.90;;
73747;SDS011;62056;52.130;5.428;2023-12-14T02:39:14;5.63;;;4.70;;
73747;SDS011;62056;52.130;5.428;2023-12-14T02:41:41;4.68;;;4.18;;
73747;SDS011;62056;52.130;5.428;2023-12-14T02:44:07;5.87;;;4.20;;
73747;SDS011;62056;52.130;5.428;2023-12-14T02:46:34;7.18;;;6.07;;
73747;SDS011;62056;52.130;5.428;2023-12-14T02:49:01;6.18;;;5.25;;
73747;SDS011;62056;52.130;5.428;2023-12-14T02:51:28;6.53;;;4.97;;
73747;SDS011;62056;52.130;5.428;2023-12-14T02:53:54;6.03;;;4.53;;
73747;SDS011;62056;52.130;5.428;2023-12-14T02:56:23;7.53;;;5.47;;
73747;SDS011;62056;52.130;5.428;2023-12-14T02:58:50;5.68;;;5.07;;
73747;SDS011;62056;52.130;5.428;2023-12-14T03:01:21;6.50;;;5.13;;
73747;SDS011;62056;52.130;5.428;2023-12-14T03:03:48;6.43;;;4.93;;
73747;SDS011;62056;52.130;5.428;2023-12-14T03:06:15;5.85;;;4.72;;
73747;SDS011;62056;52.130;5.428;2023-12-14T03:08:42;5.57;;;4.93;;
73747;SDS011;62056;52.130;5.428;2023-12-14T03:11:09;7.20;;;5.70;;
73747;SDS011;62056;52.130;5.428;2023-12-14T03:13:36;6.03;;;5.40;;
73747;SDS011;62056;52.130;5.428;2023-12-14T03:16:02;4.43;;;4.03;;
73747;SDS011;62056;52.130;5.428;2023-12-14T03:18:30;5.63;;;4.95;;
73747;SDS011;62056;52.130;5.428;2023-12-14T03:20:56;5.37;;;4.87;;
73747;SDS011;62056;52.130;5.428;2023-12-14T03:23:23;6.80;;;4.88;;
73747;SDS011;62056;52.130;5.428;2023-12-14T03:25:50;6.07;;;5.03;;
73747;SDS011;62056;52.130;5.428;2023-12-14T03:28:16;9.50;;;5.82;;
73747;SDS011;62056;52.130;5.428;2023-12-14T03:30:43;6.35;;;5.40;;
73747;SDS011;62056;52.130;5.428;2023-12-14T03:33:10;5.57;;;4.90;;
73747;SDS011;62056;52.130;5.428;2023-12-14T03:35:38;6.07;;;4.70;;
73747;SDS011;62056;52.130;5.428;2023-12-14T03:38:05;6.18;;;5.30;;
73747;SDS011;62056;52.130;5.428;2023-12-14T03:40:31;6.95;;;5.78;;
73747;SDS011;62056;52.130;5.428;2023-12-14T03:42:58;6.90;;;6.05;;
73747;SDS011;62056;52.130;5.428;2023-12-14T03:45:25;6.70;;;6.00;;
73747;SDS011;62056;52.130;5.428;2023-12-14T03:47:52;6.60;;;5.15;;
73747;SDS011;62056;52.130;5.428;2023-12-14T03:50:19;6.28;;;4.97;;
73747;SDS011;62056;52.130;5.428;2023-12-14T03:52:46;7.07;;;6.35;;
73747;SDS011;62056;52.130;5.428;2023-12-14T03:55:14;6.45;;;5.80;;
73747;SDS011;62056;52.130;5.428;2023-12-14T03:57:43;5.27;;;4.77;;
73747;SDS011;62056;52.130;5.428;2023-12-14T04:00:10;6.53;;;5.82;;
73747;SDS011;62056;52.130;5.428;2023-12-14T04:02:39;8.40;;;5.50;;
73747;SDS011;62056;52.130;5.428;2023-12-14T04:05:07;8.25;;;5.53;;
73747;SDS011;62056;52.130;5.428;2023-12-14T04:07:37;6.65;;;5.50;;
73747;SDS011;62056;52.130;5.428;2023-12-14T04:10:07;8.00;;;5.30;;
73747;SDS011;62056;52.130;5.428;2023-12-14T04:12:36;9.18;;;5.30;;
73747;SDS011;62056;52.130;5.428;2023-12-14T04:15:03;7.82;;;5.43;;
73747;SDS011;62056;52.130;5.428;2023-12-14T04:17:31;8.20;;;5.15;;
73747;SDS011;62056;52.130;5.428;2023-12-14T04:19:58;7.75;;;5.30;;
73747;SDS011;62056;52.130;5.428;2023-12-14T04:22:25;8.47;;;5.23;;
73747;SDS011;62056;52.130;5.428;2023-12-14T04:24:52;5.55;;;4.63;;
73747;SDS011;62056;52.130;5.428;2023-12-14T04:27:19;6.55;;;4.30;;
73747;SDS011;62056;52.130;5.428;2023-12-14T04:29:47;11.35;;;5.38;;
73747;SDS011;62056;52.130;5.428;2023-12-14T04:32:14;9.60;;;5.25;;
73747;SDS011;62056;52.130;5.428;2023-12-14T04:34:41;8.63;;;5.23;;
73747;SDS011;62056;52.130;5.428;2023-12-14T04:37:08;6.40;;;5.20;;
73747;SDS011;62056;52.130;5.428;2023-12-14T04:39:37;5.70;;;4.93;;
73747;SDS011;62056;52.130;5.428;2023-12-14T04:42:04;6.95;;;4.60;;
73747;SDS011;62056;52.130;5.428;2023-12-14T04:44:31;7.50;;;4.47;;
73747;SDS011;62056;52.130;5.428;2023-12-14T04:46:57;5.53;;;4.27;;
73747;SDS011;62056;52.130;5.428;2023-12-14T04:49:24;6.57;;;4.45;;
73747;SDS011;62056;52.130;5.428;2023-12-14T04:51:51;6.43;;;4.38;;
73747;SDS011;62056;52.130;5.428;2023-12-14T04:54:18;5.40;;;4.30;;
73747;SDS011;62056;52.130;5.428;2023-12-14T04:56:45;5.53;;;4.35;;
73747;SDS011;62056;52.130;5.428;2023-12-14T04:59:12;6.57;;;4.30;;
73747;SDS011;62056;52.130;5.428;2023-12-14T05:01:39;7.20;;;4.72;;
73747;SDS011;62056;52.130;5.428;2023-12-14T05:04:06;8.93;;;4.35;;
73747;SDS011;62056;52.130;5.428;2023-12-14T05:06:32;5.93;;;4.30;;
73747;SDS011;62056;52.130;5.428;2023-12-14T05:09:00;5.65;;;4.10;;
73747;SDS011;62056;52.130;5.428;2023-12-14T05:11:31;5.87;;;4.90;;
73747;SDS011;62056;52.130;5.428;2023-12-14T05:13:58;5.68;;;4.00;;
73747;SDS011;62056;52.130;5.428;2023-12-14T05:16:25;5.47;;;4.93;;
73747;SDS011;62056;52.130;5.428;2023-12-14T05:18:53;7.13;;;4.57;;
73747;SDS011;62056;52.130;5.428;2023-12-14T05:21:20;6.72;;;4.53;;
73747;SDS011;62056;52.130;5.428;2023-12-14T05:23:47;4.90;;;4.03;;
73747;SDS011;62056;52.130;5.428;2023-12-14T05:26:14;4.95;;;3.92;;
73747;SDS011;62056;52.130;5.428;2023-12-14T05:28:40;6.10;;;4.35;;
73747;SDS011;62056;52.130;5.428;2023-12-14T05:31:07;9.85;;;4.97;;
73747;SDS011;62056;52.130;5.428;2023-12-14T05:33:37;5.80;;;4.68;;
73747;SDS011;62056;52.130;5.428;2023-12-14T05:36:05;7.53;;;4.63;;
73747;SDS011;62056;52.130;5.428;2023-12-14T05:38:38;5.00;;;4.28;;
73747;SDS011;62056;52.130;5.428;2023-12-14T05:41:06;6.18;;;3.88;;
73747;SDS011;62056;52.130;5.428;2023-12-14T05:43:33;4.93;;;3.75;;
73747;SDS011;62056;52.130;5.428;2023-12-14T05:46:00;5.72;;;4.03;;
73747;SDS011;62056;52.130;5.428;2023-12-14T05:48:26;7.73;;;3.90;;
73747;SDS011;62056;52.130;5.428;2023-12-14T05:50:55;5.05;;;3.50;;
73747;SDS011;62056;52.130;5.428;2023-12-14T05:53:22;6.47;;;3.90;;
73747;SDS011;62056;52.130;5.428;2023-12-14T05:55:54;5.65;;;4.40;;
73747;SDS011;62056;52.130;5.428;2023-12-14T05:58:21;7.30;;;4.18;;
73747;SDS011;62056;52.130;5.428;2023-12-14T06:00:47;6.50;;;3.73;;
73747;SDS011;62056;52.130;5.428;2023-12-14T06:03:14;7.97;;;4.00;;
73747;SDS011;62056;52.130;5.428;2023-12-14T06:05:41;6.68;;;4.57;;
73747;SDS011;62056;52.130;5.428;2023-12-14T06:08:08;5.35;;;3.90;;
73747;SDS011;62056;52.130;5.428;2023-12-14T06:10:35;4.63;;;3.33;;
73747;SDS011;62056;52.130;5.428;2023-12-14T06:13:03;5.00;;;3.47;;
73747;SDS011;62056;52.130;5.428;2023-12-14T06:15:30;4.60;;;3.50;;
73747;SDS011;62056;52.130;5.428;2023-12-14T06:17:56;4.75;;;3.40;;
73747;SDS011;62056;52.130;5.428;2023-12-14T06:20:23;3.83;;;3.15;;
73747;SDS011;62056;52.130;5.428;2023-12-14T06:22:50;4.18;;;2.95;;
73747;SDS011;62056;52.130;5.428;2023-12-14T06:25:17;7.00;;;3.77;;
73747;SDS011;62056;52.130;5.428;2023-12-14T06:27:43;5.00;;;3.00;;
73747;SDS011;62056;52.130;5.428;2023-12-14T06:30:11;4.93;;;3.80;;
73747;SDS011;62056;52.130;5.428;2023-12-14T06:32:38;6.68;;;3.28;;
73747;SDS011;62056;52.130;5.428;2023-12-14T06:35:06;4.93;;;3.38;;
73747;SDS011;62056;52.130;5.428;2023-12-14T06:37:33;4.37;;;3.10;;
73747;SDS011;62056;52.130;5.428;2023-12-14T06:40:00;3.10;;;2.63;;
73747;SDS011;62056;52.130;5.428;2023-12-14T06:42:27;5.28;;;3.65;;
73747;SDS011;62056;52.130;5.428;2023-12-14T06:44:54;3.80;;;3.40;;
73747;SDS011;62056;52.130;5.428;2023-12-14T06:47:21;4.60;;;3.70;;
73747;SDS011;62056;52.130;5.428;2023-12-14T06:49:47;4.80;;;3.20;;
73747;SDS011;62056;52.130;5.428;2023-12-14T06:52:17;3.47;;;2.75;;
73747;SDS011;62056;52.130;5.428;2023-12-14T06:54:43;5.35;;;2.88;;
73747;SDS011;62056;52.130;5.428;2023-12-14T06:57:10;3.13;;;2.60;;
73747;SDS011;62056;52.130;5.428;2023-12-14T06:59:37;4.18;;;3.78;;
73747;SDS011;62056;52.130;5.428;2023-12-14T07:02:03;4.40;;;3.37;;
73747;SDS011;62056;52.130;5.428;2023-12-14T07:04:30;3.33;;;2.78;;
73747;SDS011;62056;52.130;5.428;2023-12-14T07:06:57;5.63;;;3.70;;
73747;SDS011;62056;52.130;5.428;2023-12-14T07:09:24;4.00;;;2.90;;
73747;SDS011;62056;52.130;5.428;2023-12-14T07:11:51;4.28;;;3.75;;
73747;SDS011;62056;52.130;5.428;2023-12-14T07:14:18;3.03;;;2.50;;
73747;SDS011;62056;52.130;5.428;2023-12-14T07:16:49;6.40;;;3.40;;
73747;SDS011;62056;52.130;5.428;2023-12-14T07:19:16;6.28;;;3.30;;
73747;SDS011;62056;52.130;5.428;2023-12-14T07:21:43;4.45;;;3.38;;
73747;SDS011;62056;52.130;5.428;2023-12-14T07:24:09;4.15;;;2.90;;
73747;SDS011;62056;52.130;5.428;2023-12-14T07:26:36;4.27;;;3.87;;
73747;SDS011;62056;52.130;5.428;2023-12-14T07:29:03;3.42;;;2.90;;
73747;SDS011;62056;52.130;5.428;2023-12-14T07:31:30;5.38;;;3.05;;
73747;SDS011;62056;52.130;5.428;2023-12-14T07:33:56;7.78;;;3.25;;
73747;SDS011;62056;52.130;5.428;2023-12-14T07:36:23;4.80;;;3.78;;
73747;SDS011;62056;52.130;5.428;2023-12-14T07:38:50;4.40;;;3.00;;
73747;SDS011;62056;52.130;5.428;2023-12-14T07:41:20;4.70;;;3.03;;
73747;SDS011;62056;52.130;5.428;2023-12-14T07:43:53;4.25;;;3.47;;
73747;SDS011;62056;52.130;5.428;2023-12-14T07:46:19;6.88;;;3.75;;
73747;SDS011;62056;52.130;5.428;2023-12-14T07:48:46;3.70;;;3.28;;
73747;SDS011;62056;52.130;5.428;2023-12-14T07:51:13;4.30;;;3.00;;
73747;SDS011;62056;52.130;5.428;2023-12-14T07:53:40;3.50;;;3.08;;
73747;SDS011;62056;52.130;5.428;2023-12-14T07:56:07;4.82;;;2.95;;
73747;SDS011;62056;52.130;5.428;2023-12-14T07:58:34;4.22;;;3.00;;
73747;SDS011;62056;52.130;5.428;2023-12-14T08:01:01;4.47;;;3.17;;
73747;SDS011;62056;52.130;5.428;2023-12-14T08:03:28;4.90;;;3.73;;
73747;SDS011;62056;52.130;5.428;2023-12-14T08:05:55;3.13;;;2.47;;
73747;SDS011;62056;52.130;5.428;2023-12-14T08:08:21;3.45;;;3.15;;
73747;SDS011;62056;52.130;5.428;2023-12-14T08:10:48;4.15;;;3.55;;
73747;SDS011;62056;52.130;5.428;2023-12-14T08:13:18;4.65;;;3.28;;
73747;SDS011;62056;52.130;5.428;2023-12-14T08:15:45;3.50;;;2.90;;
73747;SDS011;62056;52.130;5.428;2023-12-14T08:18:11;3.65;;;3.30;;
73747;SDS011;62056;52.130;5.428;2023-12-14T08:20:40;3.67;;;2.97;;
73747;SDS011;62056;52.130;5.428;2023-12-14T08:23:07;3.88;;;3.17;;
73747;SDS011;62056;52.130;5.428;2023-12-14T08:25:34;3.70;;;3.35;;
73747;SDS011;62056;52.130;5.428;2023-12-14T08:28:01;4.17;;;3.50;;
73747;SDS011;62056;52.130;5.428;2023-12-14T08:30:30;4.05;;;3.00;;
73747;SDS011;62056;52.130;5.428;2023-12-14T08:32:57;6.63;;;3.13;;
73747;SDS011;62056;52.130;5.428;2023-12-14T08:35:24;4.78;;;2.70;;
73747;SDS011;62056;52.130;5.428;2023-12-14T08:37:51;3.63;;;3.33;;
73747;SDS011;62056;52.130;5.428;2023-12-14T08:40:18;6.17;;;3.10;;
73747;SDS011;62056;52.130;5.428;2023-12-14T08:42:46;5.70;;;3.78;;
73747;SDS011;62056;52.130;5.428;2023-12-14T08:45:14;4.95;;;3.17;;
73747;SDS011;62056;52.130;5.428;2023-12-14T08:47:40;5.13;;;3.55;;
73747;SDS011;62056;52.130;5.428;2023-12-14T08:50:07;4.60;;;2.95;;
73747;SDS011;62056;52.130;5.428;2023-12-14T08:52:35;4.67;;;3.13;;
73747;SDS011;62056;52.130;5.428;2023-12-14T08:55:02;2.58;;;2.10;;
73747;SDS011;62056;52.130;5.428;2023-12-14T08:57:29;4.18;;;3.70;;
73747;SDS011;62056;52.130;5.428;2023-12-14T08:59:57;3.65;;;3.28;;
73747;SDS011;62056;52.130;5.428;2023-12-14T09:02:26;4.75;;;3.72;;
73747;SDS011;62056;52.130;5.428;2023-12-14T09:04:53;5.30;;;4.03;;
73747;SDS011;62056;52.130;5.428;2023-12-14T09:07:20;4.05;;;3.55;;
73747;SDS011;62056;52.130;5.428;2023-12-14T09:10:01;4.20;;;2.72;;
73747;SDS011;62056;52.130;5.428;2023-12-14T09:12:52;3.67;;;3.03;;
73747;SDS011;62056;52.130;5.428;2023-12-14T09:15:33;4.15;;;2.88;;
73747;SDS011;62056;52.130;5.428;2023-12-14T09:18:06;4.67;;;3.80;;
73747;SDS011;62056;52.130;5.428;2023-12-14T09:20:41;4.70;;;2.60;;
73747;SDS011;62056;52.130;5.428;2023-12-14T09:23:11;3.80;;;3.40;;
73747;SDS011;62056;52.130;5.428;2023-12-14T09:25:41;7.47;;;3.78;;
73747;SDS011;62056;52.130;5.428;2023-12-14T09:28:09;6.63;;;3.78;;
73747;SDS011;62056;52.130;5.428;2023-12-14T09:30:39;4.80;;;3.20;;
73747;SDS011;62056;52.130;5.428;2023-12-14T09:33:15;3.25;;;2.65;;
73747;SDS011;62056;52.130;5.428;2023-12-14T09:36:15;6.68;;;3.22;;
73747;SDS011;62056;52.130;5.428;2023-12-14T09:39:14;5.80;;;3.22;;
73747;SDS011;62056;52.130;5.428;2023-12-14T09:42:02;4.53;;;2.78;;
73747;SDS011;62056;52.130;5.428;2023-12-14T09:44:45;4.03;;;3.13;;
73747;SDS011;62056;52.130;5.428;2023-12-14T09:47:21;4.63;;;4.20;;
73747;SDS011;62056;52.130;5.428;2023-12-14T09:50:00;6.30;;;4.30;;
73747;SDS011;62056;52.130;5.428;2023-12-14T09:52:36;4.03;;;3.10;;
73747;SDS011;62056;52.130;5.428;2023-12-14T09:55:38;4.13;;;3.25;;
73747;SDS011;62056;52.130;5.428;2023-12-14T09:58:16;5.30;;;3.10;;
73747;SDS011;62056;52.130;5.428;2023-12-14T10:00:45;7.47;;;3.80;;
73747;SDS011;62056;52.130;5.428;2023-12-14T10:03:24;3.33;;;3.03;;
73747;SDS011;62056;52.130;5.428;2023-12-14T10:06:10;5.15;;;3.90;;
73747;SDS011;62056;52.130;5.428;2023-12-14T10:09:00;6.18;;;3.22;;
73747;SDS011;62056;52.130;5.428;2023-12-14T10:11:36;3.53;;;2.60;;
73747;SDS011;62056;52.130;5.428;2023-12-14T10:14:22;4.78;;;3.17;;
73747;SDS011;62056;52.130;5.428;2023-12-14T10:16:54;3.85;;;2.25;;
73747;SDS011;62056;52.130;5.428;2023-12-14T10:19:29;4.72;;;2.40;;
73747;SDS011;62056;52.130;5.428;2023-12-14T10:21:56;3.30;;;2.85;;
73747;SDS011;62056;52.130;5.428;2023-12-14T10:24:29;4.90;;;3.17;;
73747;SDS011;62056;52.130;5.428;2023-12-14T10:27:05;3.42;;;3.13;;
73747;SDS011;62056;52.130;5.428;2023-12-14T10:29:38;3.95;;;2.88;;
73747;SDS011;62056;52.130;5.428;2023-12-14T10:32:06;4.95;;;3.20;;
73747;SDS011;62056;52.130;5.428;2023-12-14T10:34:35;5.78;;;3.33;;
73747;SDS011;62056;52.130;5.428;2023-12-14T10:37:04;4.03;;;3.23;;
73747;SDS011;62056;52.130;5.428;2023-12-14T10:39:35;4.85;;;3.03;;
73747;SDS011;62056;52.130;5.428;2023-12-14T10:42:06;3.55;;;3.25;;
73747;SDS011;62056;52.130;5.428;2023-12-14T10:44:45;2.60;;;2.38;;
73747;SDS011;62056;52.130;5.428;2023-12-14T10:47:34;3.58;;;2.22;;
73747;SDS011;62056;52.130;5.428;2023-12-14T10:50:02;5.00;;;3.27;;
73747;SDS011;62056;52.130;5.428;2023-12-14T10:52:30;3.95;;;2.72;;
73747;SDS011;62056;52.130;5.428;2023-12-14T10:55:01;4.03;;;3.28;;
73747;SDS011;62056;52.130;5.428;2023-12-14T10:57:33;4.82;;;3.20;;
73747;SDS011;62056;52.130;5.428;2023-12-14T11:00:02;3.75;;;2.80;;
73747;SDS011;62056;52.130;5.428;2023-12-14T11:02:39;4.03;;;2.97;;
73747;SDS011;62056;52.130;5.428;2023-12-14T11:05:11;3.03;;;2.25;;
73747;SDS011;62056;52.130;5.428;2023-12-14T11:07:46;4.10;;;3.22;;
73747;SDS011;62056;52.130;5.428;2023-12-14T11:10:27;5.22;;;3.55;;
73747;SDS011;62056;52.130;5.428;2023-12-14T11:13:03;5.45;;;3.22;;
73747;SDS011;62056;52.130;5.428;2023-12-14T11:15:40;4.00;;;3.60;;
73747;SDS011;62056;52.130;5.428;2023-12-14T11:18:26;4.95;;;3.65;;
73747;SDS011;62056;52.130;5.428;2023-12-14T11:20:58;4.35;;;3.63;;
73747;SDS011;62056;52.130;5.428;2023-12-14T11:23:31;3.78;;;3.40;;
73747;SDS011;62056;52.130;5.428;2023-12-14T11:26:10;4.47;;;3.38;;
73747;SDS011;62056;52.130;5.428;2023-12-14T11:28:40;3.90;;;3.10;;
73747;SDS011;62056;52.130;5.428;2023-12-14T11:31:13;8.05;;;3.78;;
73747;SDS011;62056;52.130;5.428;2023-12-14T11:33:43;6.05;;;3.42;;
73747;SDS011;62056;52.130;5.428;2023-12-14T11:36:11;4.07;;;3.20;;
73747;SDS011;62056;52.130;5.428;2023-12-14T11:38:41;5.28;;;2.80;;
73747;SDS011;62056;52.130;5.428;2023-12-14T11:41:12;8.20;;;3.43;;
73747;SDS011;62056;52.130;5.428;2023-12-14T11:43:43;4.60;;;3.40;;
73747;SDS011;62056;52.130;5.428;2023-12-14T11:46:11;5.90;;;3.55;;
73747;SDS011;62056;52.130;5.428;2023-12-14T11:48:40;4.65;;;2.70;;
73747;SDS011;62056;52.130;5.428;2023-12-14T11:51:07;6.05;;;3.25;;
73747;SDS011;62056;52.130;5.428;2023-12-14T11:53:35;3.87;;;3.40;;
73747;SDS011;62056;52.130;5.428;2023-12-14T11:56:07;14.40;;;3.60;;
73747;SDS011;62056;52.130;5.428;2023-12-14T11:58:35;4.40;;;3.58;;
73747;SDS011;62056;52.130;5.428;2023-12-14T12:03:43;4.55;;;3.33;;
73747;SDS011;62056;52.130;5.428;2023-12-14T12:06:21;6.07;;;3.40;;
73747;SDS011;62056;52.130;5.428;2023-12-14T12:08:50;5.22;;;3.28;;
73747;SDS011;62056;52.130;5.428;2023-12-14T12:11:20;6.47;;;3.33;;
73747;SDS011;62056;52.130;5.428;2023-12-14T12:13:55;3.63;;;3.00;;
73747;SDS011;62056;52.130;5.428;2023-12-14T12:16:24;4.05;;;3.70;;
73747;SDS011;62056;52.130;5.428;2023-12-14T12:18:52;6.60;;;3.13;;
73747;SDS011;62056;52.130;5.428;2023-12-14T12:21:20;3.67;;;3.15;;
73747;SDS011;62056;52.130;5.428;2023-12-14T12:23:48;7.20;;;4.05;;
73747;SDS011;62056;52.130;5.428;2023-12-14T12:26:15;5.47;;;3.50;;
73747;SDS011;62056;52.130;5.428;2023-12-14T12:28:42;5.75;;;3.42;;
73747;SDS011;62056;52.130;5.428;2023-12-14T12:31:09;3.80;;;3.00;;
73747;SDS011;62056;52.130;5.428;2023-12-14T12:33:38;3.92;;;3.50;;
73747;SDS011;62056;52.130;5.428;2023-12-14T12:36:08;8.85;;;3.55;;
73747;SDS011;62056;52.130;5.428;2023-12-14T12:38:35;5.07;;;3.45;;
73747;SDS011;62056;52.130;5.428;2023-12-14T12:41:07;4.38;;;3.50;;
73747;SDS011;62056;52.130;5.428;2023-12-14T12:43:34;4.70;;;2.60;;
73747;SDS011;62056;52.130;5.428;2023-12-14T12:46:01;5.25;;;2.70;;
73747;SDS011;62056;52.130;5.428;2023-12-14T12:48:31;3.70;;;2.35;;
73747;SDS011;62056;52.130;5.428;2023-12-14T12:50:59;5.72;;;3.28;;
73747;SDS011;62056;52.130;5.428;2023-12-14T12:53:26;3.85;;;3.10;;
73747;SDS011;62056;52.130;5.428;2023-12-14T12:55:53;3.00;;;2.57;;
73747;SDS011;62056;52.130;5.428;2023-12-14T12:58:20;4.47;;;3.72;;
73747;SDS011;62056;52.130;5.428;2023-12-14T13:01:09;3.53;;;3.15;;
73747;SDS011;62056;52.130;5.428;2023-12-14T13:03:41;2.97;;;2.20;;
73747;SDS011;62056;52.130;5.428;2023-12-14T13:06:08;4.57;;;3.55;;
73747;SDS011;62056;52.130;5.428;2023-12-14T13:08:37;4.67;;;2.20;;
73747;SDS011;62056;52.130;5.428;2023-12-14T13:11:04;6.78;;;3.42;;
73747;SDS011;62056;52.130;5.428;2023-12-14T13:13:34;3.67;;;2.60;;
73747;SDS011;62056;52.130;5.428;2023-12-14T13:16:01;5.55;;;2.63;;
73747;SDS011;62056;52.130;5.428;2023-12-14T13:21:49;3.30;;;3.00;;
73747;SDS011;62056;52.130;5.428;2023-12-14T13:24:23;3.47;;;2.55;;
73747;SDS011;62056;52.130;5.428;2023-12-14T13:27:51;2.95;;;2.53;;
73747;SDS011;62056;52.130;5.428;2023-12-14T13:30:17;2.95;;;1.88;;
73747;SDS011;62056;52.130;5.428;2023-12-14T13:32:56;5.25;;;2.40;;
73747;SDS011;62056;52.130;5.428;2023-12-14T13:35:25;3.37;;;2.70;;
73747;SDS011;62056;52.130;5.428;2023-12-14T13:38:00;3.95;;;2.85;;
73747;SDS011;62056;52.130;5.428;2023-12-14T13:40:27;2.88;;;2.17;;
73747;SDS011;62056;52.130;5.428;2023-12-14T13:42:54;2.70;;;1.27;;
73747;SDS011;62056;52.130;5.428;2023-12-14T13:45:37;4.60;;;2.03;;
73747;SDS011;62056;52.130;5.428;2023-12-14T13:48:30;1.97;;;1.67;;
73747;SDS011;62056;52.130;5.428;2023-12-14T13:51:11;1.98;;;1.58;;
73747;SDS011;62056;52.130;5.428;2023-12-14T13:53:42;2.10;;;1.70;;
73747;SDS011;62056;52.130;5.428;2023-12-14T13:56:13;4.32;;;2.25;;
73747;SDS011;62056;52.130;5.428;2023-12-14T13:58:42;2.85;;;2.05;;
73747;SDS011;62056;52.130;5.428;2023-12-14T14:01:16;5.73;;;2.40;;
73747;SDS011;62056;52.130;5.428;2023-12-14T14:04:05;2.95;;;2.10;;
73747;SDS011;62056;52.130;5.428;2023-12-14T14:06:31;6.80;;;1.98;;
73747;SDS011;62056;52.130;5.428;2023-12-14T14:08:58;2.53;;;1.95;;
73747;SDS011;62056;52.130;5.428;2023-12-14T14:11:25;4.03;;;2.10;;
73747;SDS011;62056;52.130;5.428;2023-12-14T14:13:52;5.13;;;2.30;;
73747;SDS011;62056;52.130;5.428;2023-12-14T14:16:22;4.93;;;2.95;;
73747;SDS011;62056;52.130;5.428;2023-12-14T14:18:50;2.95;;;2.30;;
73747;SDS011;62056;52.130;5.428;2023-12-14T14:21:18;6.00;;;2.75;;
73747;SDS011;62056;52.130;5.428;2023-12-14T14:24:51;3.65;;;2.38;;
73747;SDS011;62056;52.130;5.428;2023-12-14T14:27:20;3.83;;;2.50;;
73747;SDS011;62056;52.130;5.428;2023-12-14T14:29:49;3.50;;;1.95;;
73747;SDS011;62056;52.130;5.428;2023-12-14T14:32:26;3.58;;;2.88;;
73747;SDS011;62056;52.130;5.428;2023-12-14T14:34:56;3.80;;;2.30;;
73747;SDS011;62056;52.130;5.428;2023-12-14T14:37:25;3.97;;;2.72;;
73747;SDS011;62056;52.130;5.428;2023-12-14T14:40:01;4.63;;;2.87;;
73747;SDS011;62056;52.130;5.428;2023-12-14T14:42:55;5.43;;;3.20;;
73747;SDS011;62056;52.130;5.428;2023-12-14T14:45:36;6.00;;;3.40;;
73747;SDS011;62056;52.130;5.428;2023-12-14T14:48:05;5.60;;;2.80;;
73747;SDS011;62056;52.130;5.428;2023-12-14T14:50:34;5.22;;;3.10;;
73747;SDS011;62056;52.130;5.428;2023-12-14T14:53:02;3.40;;;3.10;;
73747;SDS011;62056;52.130;5.428;2023-12-14T14:55:29;2.58;;;2.38;;
73747;SDS011;62056;52.130;5.428;2023-12-14T14:57:57;4.47;;;2.63;;
73747;SDS011;62056;52.130;5.428;2023-12-14T15:00:25;3.45;;;2.17;;
73747;SDS011;62056;52.130;5.428;2023-12-14T15:02:53;4.50;;;3.95;;
73747;SDS011;62056;52.130;5.428;2023-12-14T15:05:20;5.57;;;4.07;;
73747;SDS011;62056;52.130;5.428;2023-12-14T15:07:47;4.40;;;3.65;;
73747;SDS011;62056;52.130;5.428;2023-12-14T15:10:13;4.63;;;3.42;;